Flight Track Log - Related Links

Times and Time Zones

All times are in EDT time to prevent confusion due to time zone crossing. See the AWI3551 flight status page for this flight to view local times or setup timezone preferences in your user account.

Time Position Orientation Groundspeed Altitude Reporting Facility
EDT Latitude Longitude Course Direction KTS MPH feet Rate Location/Type
Tue 05:36:10 AM 42.9333 -78.7500 174° South 154 177 1,800  Level Buffalo TRACON
Tue 05:36:41 AM 42.9167 -78.7667 216° Southwest 153 176 2,800 2,044 Climbing Buffalo TRACON
Tue 05:37:41 AM 42.8667 -78.8167 216° Southwest 211 243 4,900 2,520 Climbing Buffalo TRACON
Tue 05:38:00 AM 42.6240 -78.6848 172° South  Level FlightAware Approximate
Tue 05:38:21 AM 42.8392 -78.8533 224° Southwest 212 244 7,000  Level Cleveland Center
Tue 05:39:00 AM 42.5213 -78.6647 173° South  Level FlightAware Approximate
Tue 05:39:21 AM 42.7742 -78.8408 172° South 212 244 8,600  Level Cleveland Center
Tue 05:40:00 AM 42.4182 -78.6500 180° South  Level FlightAware Approximate
Tue 05:40:21 AM 42.7050 -78.8117 163° South 253 291 10,300  Level Cleveland Center
Tue 05:41:00 AM 42.3148 -78.6426 174° South  Level FlightAware Approximate
Tue 05:41:21 AM 42.6233 -78.7858 167° South 276 318 12,700  Level Cleveland Center
Tue 05:42:21 AM 42.5353 -78.7572 167° South 303 349 14,900 2,350 Climbing Cleveland Center
Tue 05:43:21 AM 42.4494 -78.7289 166° South 317 365 17,400 2,150 Climbing Cleveland Center
Tue 05:44:21 AM 42.3636 -78.6975 165° South 317 365 19,200 1,700 Climbing Cleveland Center
Tue 05:45:21 AM 42.2733 -78.6611 163° South 322 371 20,800 1,600 Climbing Cleveland Center
Tue 05:46:21 AM 42.1828 -78.6161 160° South 333 383 22,400 1,450 Climbing Cleveland Center
Tue 05:47:21 AM 42.0967 -78.5739 160° South 349 402 23,700 1,300 Climbing Cleveland Center
Tue 05:48:21 AM 42.0042 -78.5267 159° South 354 407 25,000 650 Climbing Cleveland Center
Tue 05:49:21 AM 41.9075 -78.4794 160° South 354 407 25,000  Level Cleveland Center
Tue 05:50:21 AM 41.8106 -78.4297 159° South 359 413 25,000  Level Cleveland Center
Tue 05:51:21 AM 41.7139 -78.3828 160° South 371 427 25,000  Level Cleveland Center
Tue 05:52:21 AM 41.6128 -78.3336 160° South 371 427 25,000  Level Cleveland Center
Tue 05:52:53 AM 41.5631 -78.3128 163° South 370 426 25,000  Level New York Center
Tue 05:53:51 AM 41.4622 -78.2597 158° South 381 438 25,000  Level New York Center
Tue 05:54:53 AM 41.3489 -78.2058 160° South 387 445 25,000  Level New York Center
Tue 05:55:51 AM 41.2481 -78.1558 160° South 387 445 25,000  Level New York Center
Tue 05:56:52 AM 41.1467 -78.1064 160° South 387 445 25,000  Level New York Center
Tue 05:57:53 AM 41.0436 -78.0539 159° South 392 451 25,000  Level New York Center
Tue 05:58:51 AM 40.9425 -78.0072 161° South 392 451 25,000 -400 Level New York Center
Tue 05:59:53 AM 40.8606 -77.9136 139° Southeast 387 445 24,200 -885 Descending New York Center
Tue 06:00:53 AM 40.7900 -77.8019 130° Southeast 387 445 23,200 -992 Descending New York Center
Tue 06:01:54 AM 40.7211 -77.6992 131° Southeast 387 445 22,200 -1,000 Descending New York Center
Tue 06:02:53 AM 40.6539 -77.5992 132° Southeast 373 429 21,200 -1,026 Descending New York Center
Tue 06:03:51 AM 40.5892 -77.4944 129° Southeast 373 429 20,200 -1,008 Descending New York Center
Tue 06:04:52 AM 40.5397 -77.3694 117° Southeast 373 429 19,200 -992 Descending New York Center
Tue 06:05:52 AM 40.4922 -77.2475 117° Southeast 384 442 18,200 -600 Descending New York Center
Tue 06:06:52 AM 40.4525 -77.1372 115° Southeast 378 435 18,000 -100 Descending New York Center
Tue 06:07:52 AM 40.4011 -77.0072 117° Southeast 383 441 18,000  Level New York Center
Tue 06:08:51 AM 40.3567 -76.8969 118° Southeast 383 441 18,000 -300 Level New York Center
Tue 06:09:52 AM 40.3108 -76.7758 116° Southeast 378 435 17,400 -843 Descending New York Center
Tue 06:10:52 AM 40.2611 -76.6461 117° Southeast 373 429 16,300 -1,050 Descending New York Center
Tue 06:11:52 AM 40.2164 -76.5364 118° Southeast 361 415 15,300 -1,008 Descending New York Center
Tue 06:12:51 AM 40.1736 -76.4297 118° Southeast 342 394 14,300 -942 Descending New York Center
Tue 06:13:53 AM 40.1383 -76.3397 117° Southeast 321 369 13,400 -1,033 Descending New York Center
Tue 06:14:53 AM 40.1167 -76.2242 104° East 301 346 12,200 -1,059 Descending New York Center
Tue 06:15:52 AM 40.1092 -76.1175 95° East 296 341 11,300 -958 Descending New York Center
Tue 06:16:52 AM 40.1014 -76.0111 95° East 296 341 10,300 -984 Descending New York Center
Tue 06:17:54 AM 40.0950 -75.9183 95° East 291 335 9,300 -1,180 Descending New York Center
Tue 06:18:54 AM 40.0850 -75.8092 97° East 286 329 7,900 -1,475 Descending New York Center
Tue 06:19:52 AM 40.0850 -75.7142 90° East 276 318 6,400 -915 Descending New York Center
Tue 06:20:52 AM 40.1033 -75.6231 75° East 266 306 6,100 -446 Descending New York Center
Tue 06:21:53 AM 40.1194 -75.5347 77° East 253 291 5,500 -595 Descending New York Center
Tue 06:22:53 AM 40.1347 -75.4678 73° East 210 242 4,900 -950 Descending New York Center
Tue 06:23:53 AM 40.1494 -75.4092 72° East 180 207 3,600 -900 Descending New York Center
Tue 06:24:53 AM 40.1242 -75.3667 128° Southeast 140 161 3,100 -367 Descending New York Center
Tue 06:25:31 AM 40.1000 -75.3500 152° Southeast 157 181 3,000  Descending Philadelphia TRACON
Tue 06:26:31 AM 40.0667 -75.3167 143° Southeast 155 178 3,100  Climbing Philadelphia TRACON
Tue 06:27:25 AM 40.0333 -75.3000 159° South 158 182 3,000 -471 Descending Philadelphia TRACON
Tue 06:28:13 AM 40.0000 -75.2833 159° South 158 182 2,300 -789 Descending Philadelphia TRACON
Tue 06:29:19 AM 39.9500 -75.2667 166° South 140 161 1,500 -727 Descending Philadelphia TRACON

Login

Don't have an account? Register now (free) for customized features, flight alerts, and more!